createdAt,value
2022-12-31T00:01:44.890Z,100248.02
2022-12-31T00:04:14.777Z,100250.63
2022-12-31T00:06:44.692Z,100256.71
2022-12-31T00:09:14.497Z,100258.11
2022-12-31T00:11:44.352Z,100254.42
2022-12-31T00:14:14.903Z,100257.16
2022-12-31T00:16:44.764Z,100258.95
2022-12-31T00:19:13.494Z,100260.80
2022-12-31T00:21:43.478Z,100265.91
2022-12-31T00:24:13.056Z,100267.16
2022-12-31T00:26:42.814Z,100268.45
2022-12-31T00:29:12.664Z,100274.54
2022-12-31T00:31:42.445Z,100274.96
2022-12-31T00:34:12.265Z,100284.89
2022-12-31T00:36:42.628Z,100284.43
2022-12-31T00:39:12.516Z,100282.58
2022-12-31T00:41:44.042Z,100285.53
2022-12-31T00:44:13.359Z,100286.34
2022-12-31T00:49:12.165Z,100282.17
2022-12-31T00:51:40.291Z,100287.20
2022-12-31T00:54:10.110Z,100280.63
2022-12-31T00:56:37.186Z,100286.11
2022-12-31T00:59:05.519Z,100292.61
2022-12-31T01:01:38.262Z,100288.60
2022-12-31T01:04:11.073Z,100291.33
2022-12-31T01:06:42.750Z,100298.62
2022-12-31T01:09:17.723Z,100303.86
2022-12-31T01:11:51.168Z,100315.33
2022-12-31T01:14:20.937Z,100316.98
2022-12-31T01:16:54.165Z,100318.48
2022-12-31T01:19:29.562Z,100320.84
2022-12-31T01:21:58.829Z,100314.98
2022-12-31T01:24:26.905Z,100315.45
2022-12-31T01:26:57.764Z,100311.24
2022-12-31T01:29:26.851Z,100307.65
2022-12-31T01:31:56.958Z,100317.54
2022-12-31T01:34:26.725Z,100322.62
2022-12-31T01:36:56.636Z,100324.39
2022-12-31T01:39:26.591Z,100319.91
2022-12-31T01:41:56.559Z,100321.70
2022-12-31T01:44:26.240Z,100321.92
2022-12-31T01:47:04.112Z,100329.14
2022-12-31T01:49:47.885Z,100334.66
2022-12-31T01:52:22.927Z,100343.41
2022-12-31T01:55:00.117Z,100338.49
2022-12-31T01:57:31.245Z,100337.02
2022-12-31T02:00:01.985Z,100339.89
2022-12-31T02:02:31.147Z,100344.29
2022-12-31T02:05:02.690Z,100345.13
2022-12-31T02:07:29.597Z,100342.56
2022-12-31T02:09:59.591Z,100342.63
2022-12-31T02:12:26.606Z,100351.19
2022-12-31T02:14:56.524Z,100356.55
2022-12-31T02:17:47.984Z,100366.64
2022-12-31T02:21:14.421Z,100362.79
2022-12-31T02:24:15.255Z,100367.92
2022-12-31T02:27:07.011Z,100363.16
2022-12-31T02:30:04.166Z,100359.72
2022-12-31T02:33:02.658Z,100361.59
2022-12-31T02:35:53.830Z,100361.78
2022-12-31T02:38:39.083Z,100353.89
2022-12-31T02:41:34.776Z,100350.50
2022-12-31T02:44:26.511Z,100346.98
2022-12-31T02:47:23.491Z,100339.70
2022-12-31T02:50:22.101Z,100343.00
2022-12-31T02:53:28.271Z,100346.48
2022-12-31T02:56:07.419Z,100352.55
2022-12-31T02:59:17.330Z,100352.80
2022-12-31T03:02:11.924Z,100342.58
2022-12-31T03:04:53.668Z,100347.98
2022-12-31T03:07:27.676Z,100347.27
2022-12-31T03:09:59.139Z,100349.70
2022-12-31T03:12:48.860Z,100347.88
2022-12-31T03:15:28.309Z,100351.02
2022-12-31T03:18:15.200Z,100346.27
2022-12-31T03:21:09.876Z,100340.91
2022-12-31T03:23:43.207Z,100343.55
2022-12-31T03:26:13.100Z,100339.77
2022-12-31T03:28:47.543Z,100340.22
2022-12-31T03:31:16.438Z,100337.48
2022-12-31T03:33:45.523Z,100329.99
2022-12-31T03:36:15.072Z,100334.76
2022-12-31T03:38:48.471Z,100331.13
2022-12-31T03:41:20.709Z,100327.30
2022-12-31T03:43:47.580Z,100331.46
2022-12-31T03:46:14.927Z,100324.38
2022-12-31T03:48:43.287Z,100322.36
2022-12-31T03:51:11.707Z,100319.52
2022-12-31T03:53:40.065Z,100321.71
2022-12-31T03:56:08.530Z,100322.25
2022-12-31T03:58:36.984Z,100315.49
2022-12-31T04:01:05.520Z,100304.41
2022-12-31T04:03:33.797Z,100304.67
2022-12-31T04:06:02.168Z,100298.80
2022-12-31T04:08:30.651Z,100298.14
2022-12-31T04:10:59.032Z,100300.80
2022-12-31T04:13:27.495Z,100305.89
2022-12-31T04:15:55.925Z,100300.86
2022-12-31T04:18:24.885Z,100302.01
2022-12-31T04:20:52.798Z,100301.34
2022-12-31T04:23:21.143Z,100303.23
2022-12-31T04:25:49.649Z,100302.63
2022-12-31T04:28:18.003Z,100300.94
2022-12-31T04:30:46.460Z,100304.66
2022-12-31T04:33:15.006Z,100314.33
2022-12-31T04:35:43.993Z,100312.53
2022-12-31T04:38:11.678Z,100309.50
2022-12-31T04:41:00.096Z,100305.05
2022-12-31T04:43:30.617Z,100293.89
2022-12-31T04:46:00.094Z,100288.07
2022-12-31T04:48:29.980Z,100283.10
2022-12-31T04:50:59.815Z,100279.70
2022-12-31T04:53:30.015Z,100277.90
2022-12-31T04:55:59.844Z,100266.67
2022-12-31T04:58:29.735Z,100261.02
2022-12-31T05:00:59.992Z,100254.48
2022-12-31T05:03:30.403Z,100254.69
2022-12-31T05:06:08.248Z,100253.66
2022-12-31T05:08:38.243Z,100255.94
2022-12-31T05:11:08.129Z,100253.64
2022-12-31T05:13:35.615Z,100261.40
2022-12-31T05:16:06.654Z,100259.89
2022-12-31T05:18:37.091Z,100257.94
2022-12-31T05:21:08.089Z,100259.71
2022-12-31T05:23:36.465Z,100260.27
2022-12-31T05:26:06.263Z,100266.44
2022-12-31T05:28:36.098Z,100271.95
2022-12-31T05:31:05.745Z,100269.94
2022-12-31T05:33:34.193Z,100265.13
2022-12-31T05:36:02.517Z,100254.54
2022-12-31T05:38:31.192Z,100249.58
2022-12-31T05:41:08.987Z,100243.73
2022-12-31T05:43:38.723Z,100232.52
2022-12-31T05:46:08.983Z,100231.27
2022-12-31T05:48:38.915Z,100227.40
2022-12-31T05:51:08.714Z,100224.60
2022-12-31T05:53:38.502Z,100221.77
2022-12-31T05:56:08.265Z,100220.20
2022-12-31T05:58:38.137Z,100222.84
2022-12-31T06:01:07.905Z,100221.44
2022-12-31T06:03:37.705Z,100217.10
2022-12-31T06:06:07.989Z,100208.45
2022-12-31T06:08:37.751Z,100203.75
2022-12-31T06:11:07.901Z,100205.39
2022-12-31T06:13:37.705Z,100197.32
2022-12-31T06:16:09.925Z,100195.23
2022-12-31T06:18:40.022Z,100193.98
2022-12-31T06:21:09.810Z,100194.37
2022-12-31T06:23:41.110Z,100186.84
2022-12-31T06:26:11.042Z,100179.64
2022-12-31T06:28:41.912Z,100189.71
2022-12-31T06:31:14.915Z,100183.92
2022-12-31T06:33:46.854Z,100190.08
2022-12-31T06:36:16.694Z,100188.11
2022-12-31T06:38:46.489Z,100188.16
2022-12-31T06:41:18.302Z,100202.07
2022-12-31T06:43:48.644Z,100199.64
2022-12-31T06:46:18.931Z,100188.37
2022-12-31T06:48:48.669Z,100183.64
2022-12-31T06:51:21.467Z,100183.46
2022-12-31T06:53:51.950Z,100188.91
2022-12-31T06:56:34.079Z,100184.53
2022-12-31T06:59:05.137Z,100189.46
2022-12-31T07:01:58.738Z,100190.34
2022-12-31T07:05:26.207Z,100182.94
2022-12-31T07:08:08.902Z,100182.21
2022-12-31T07:10:53.524Z,100183.08
2022-12-31T07:13:58.050Z,100175.15
2022-12-31T07:16:53.974Z,100170.37
2022-12-31T07:19:38.707Z,100166.48
2022-12-31T07:22:16.884Z,100167.34
2022-12-31T07:24:45.474Z,100171.73
2022-12-31T07:27:21.419Z,100173.50
2022-12-31T07:30:02.755Z,100175.77
2022-12-31T07:33:07.029Z,100188.59
2022-12-31T07:36:05.995Z,100184.02
2022-12-31T07:38:50.943Z,100178.23
2022-12-31T07:41:57.353Z,100184.70
2022-12-31T07:44:51.827Z,100178.52
2022-12-31T07:47:27.680Z,100189.09
2022-12-31T07:49:58.507Z,100183.12
2022-12-31T07:52:28.769Z,100185.53
2022-12-31T07:54:58.543Z,100190.07
2022-12-31T07:57:41.082Z,100199.21
2022-12-31T08:00:16.140Z,100194.65
2022-12-31T08:03:14.802Z,100200.63
2022-12-31T08:05:44.601Z,100202.19
2022-12-31T08:09:04.743Z,100208.73
2022-12-31T08:11:46.327Z,100212.20
2022-12-31T08:14:17.915Z,100211.48
2022-12-31T08:16:48.956Z,100212.08
2022-12-31T08:19:33.183Z,100217.94
2022-12-31T08:22:37.157Z,100215.80
2022-12-31T08:25:35.284Z,100208.42
2022-12-31T08:28:34.214Z,100208.79
2022-12-31T08:31:24.019Z,100208.41
2022-12-31T08:34:41.157Z,100210.33
2022-12-31T08:37:24.998Z,100204.80
2022-12-31T08:40:11.335Z,100201.77
2022-12-31T08:43:33.379Z,100207.42
2022-12-31T08:46:07.965Z,100213.13
2022-12-31T08:48:42.385Z,100210.04
2022-12-31T08:51:22.150Z,100203.30
2022-12-31T08:53:53.496Z,100209.10
2022-12-31T08:56:50.461Z,100217.21
2022-12-31T08:59:49.017Z,100218.53
2022-12-31T09:02:44.604Z,100224.71
2022-12-31T09:05:59.367Z,100224.63
2022-12-31T09:09:03.331Z,100226.21
2022-12-31T09:12:03.343Z,100233.47
2022-12-31T09:14:54.379Z,100235.83
2022-12-31T09:17:38.955Z,100238.20
2022-12-31T09:20:20.288Z,100232.52
2022-12-31T09:22:51.385Z,100236.73
2022-12-31T09:25:24.526Z,100232.44
2022-12-31T09:28:19.751Z,100221.14
2022-12-31T09:31:28.943Z,100228.30
2022-12-31T09:34:41.683Z,100225.29
2022-12-31T09:37:46.599Z,100213.57
2022-12-31T09:40:28.295Z,100220.21
2022-12-31T09:43:03.875Z,100226.64
2022-12-31T09:45:46.529Z,100217.59
2022-12-31T09:48:40.471Z,100221.98
2022-12-31T09:51:42.501Z,100218.61
2022-12-31T09:54:38.295Z,100215.00
2022-12-31T09:57:38.212Z,100214.53
2022-12-31T10:00:52.836Z,100205.69
2022-12-31T10:03:51.989Z,100209.25
2022-12-31T10:06:39.700Z,100207.39
2022-12-31T10:10:02.773Z,100205.54
2022-12-31T10:13:08.241Z,100208.06
2022-12-31T10:16:13.571Z,100207.15
2022-12-31T10:19:36.514Z,100204.52
2022-12-31T10:22:40.716Z,100206.41
2022-12-31T10:25:57.433Z,100206.70
2022-12-31T10:29:27.841Z,100201.23
2022-12-31T10:32:38.719Z,100214.67
2022-12-31T10:36:05.095Z,100213.25
2022-12-31T10:39:13.490Z,100221.04
2022-12-31T10:42:31.495Z,100223.02
2022-12-31T10:45:20.251Z,100237.43
2022-12-31T10:48:33.264Z,100227.90
2022-12-31T10:51:47.633Z,100239.36
2022-12-31T10:55:02.736Z,100235.60
2022-12-31T10:58:11.582Z,100239.05
2022-12-31T11:00:54.597Z,100241.81
2022-12-31T11:04:01.023Z,100242.18
2022-12-31T11:07:07.537Z,100249.17
2022-12-31T11:10:21.534Z,100243.29
2022-12-31T11:13:41.229Z,100253.61
2022-12-31T11:16:20.742Z,100262.11
2022-12-31T11:19:11.649Z,100261.76
2022-12-31T11:22:17.150Z,100270.32
2022-12-31T11:25:11.850Z,100270.14
2022-12-31T11:28:11.596Z,100263.57
2022-12-31T11:31:18.942Z,100271.58
2022-12-31T11:34:23.091Z,100272.70
2022-12-31T11:37:33.367Z,100274.41
2022-12-31T11:40:33.961Z,100270.71
2022-12-31T11:44:00.447Z,100263.17
2022-12-31T11:47:08.524Z,100262.55
2022-12-31T11:50:03.687Z,100262.95
2022-12-31T11:53:04.179Z,100258.58
2022-12-31T11:55:59.068Z,100258.86
2022-12-31T11:58:30.137Z,100261.55
2022-12-31T12:01:11.782Z,100254.08
2022-12-31T12:03:44.817Z,100260.36
2022-12-31T12:06:20.091Z,100264.54
2022-12-31T12:08:56.921Z,100268.44
2022-12-31T12:11:31.992Z,100262.87
2022-12-31T12:14:02.019Z,100262.70
2022-12-31T12:16:31.951Z,100265.53
2022-12-31T12:19:16.603Z,100271.08
2022-12-31T12:21:49.349Z,100268.41
2022-12-31T12:24:25.439Z,100270.19
2022-12-31T12:26:53.296Z,100266.90
2022-12-31T12:29:30.014Z,100264.88
2022-12-31T12:32:27.416Z,100262.45
2022-12-31T12:34:54.799Z,100262.80
2022-12-31T12:37:26.441Z,100265.82
2022-12-31T12:40:33.898Z,100266.63
2022-12-31T12:43:03.936Z,100266.83
2022-12-31T12:45:51.435Z,100273.39
2022-12-31T12:48:32.799Z,100270.42
2022-12-31T12:51:31.673Z,100269.38
2022-12-31T12:54:47.985Z,100265.20
2022-12-31T12:57:34.190Z,100259.78
2022-12-31T13:00:16.116Z,100258.28
2022-12-31T13:03:01.906Z,100262.08
2022-12-31T13:05:56.660Z,100262.57
2022-12-31T13:08:32.352Z,100259.73
2022-12-31T13:11:42.360Z,100264.66
2022-12-31T13:14:42.865Z,100274.92
2022-12-31T13:17:27.542Z,100261.65
2022-12-31T13:20:26.116Z,100277.30
2022-12-31T13:23:20.604Z,100274.79
2022-12-31T13:26:20.040Z,100271.76
2022-12-31T13:28:52.975Z,100278.50
2022-12-31T13:31:34.136Z,100273.41
2022-12-31T13:34:13.293Z,100274.36
2022-12-31T13:36:45.009Z,100279.16
2022-12-31T13:39:23.473Z,100275.68
2022-12-31T13:42:22.285Z,100280.95
2022-12-31T13:44:59.360Z,100284.86
2022-12-31T13:47:58.815Z,100277.96
2022-12-31T13:50:39.117Z,100289.77
2022-12-31T13:53:45.068Z,100307.00
2022-12-31T13:56:25.013Z,100308.38
2022-12-31T13:59:28.463Z,100308.02
2022-12-31T14:02:26.264Z,100316.59
2022-12-31T14:05:11.466Z,100318.99
2022-12-31T14:08:02.500Z,100328.86
2022-12-31T14:10:56.719Z,100341.13
2022-12-31T14:14:18.577Z,100348.40
2022-12-31T14:17:02.463Z,100348.90
2022-12-31T14:20:00.739Z,100356.29
2022-12-31T14:22:58.884Z,100364.34
2022-12-31T14:25:34.800Z,100381.02
2022-12-31T14:28:10.331Z,100384.61
2022-12-31T14:30:44.707Z,100382.17
2022-12-31T14:33:40.860Z,100392.17
2022-12-31T14:36:18.069Z,100390.04
2022-12-31T14:39:18.337Z,100397.49
2022-12-31T14:42:11.385Z,100399.48
2022-12-31T14:45:30.071Z,100402.06
2022-12-31T14:48:40.865Z,100403.34
2022-12-31T14:51:13.025Z,100410.67
2022-12-31T14:53:54.373Z,100417.45
2022-12-31T14:56:45.950Z,100422.67
2022-12-31T14:59:32.235Z,100428.82
2022-12-31T15:02:27.345Z,100431.35
2022-12-31T15:05:12.532Z,100433.25
2022-12-31T15:07:54.436Z,100431.35
2022-12-31T15:10:48.143Z,100436.85
2022-12-31T15:13:56.044Z,100438.08
2022-12-31T15:16:51.162Z,100443.11
2022-12-31T15:19:48.713Z,100437.23
2022-12-31T15:22:24.333Z,100443.63
2022-12-31T15:24:54.569Z,100428.56
2022-12-31T15:27:37.028Z,100432.64
2022-12-31T15:30:07.523Z,100436.52
2022-12-31T15:32:46.589Z,100448.87
2022-12-31T15:35:21.912Z,100450.91
2022-12-31T15:38:15.253Z,100460.66
2022-12-31T15:40:52.482Z,100472.13
2022-12-31T15:43:25.269Z,100469.36
2022-12-31T15:45:57.688Z,100460.01
2022-12-31T15:49:10.252Z,100463.36
2022-12-31T15:52:01.589Z,100456.21
2022-12-31T15:54:44.372Z,100445.30
2022-12-31T15:57:30.799Z,100448.33
2022-12-31T16:00:06.831Z,100453.78
2022-12-31T16:02:42.995Z,100456.22
2022-12-31T16:05:26.597Z,100458.83
2022-12-31T16:07:59.585Z,100468.63
2022-12-31T16:10:32.898Z,100466.05
2022-12-31T16:13:02.806Z,100476.84
2022-12-31T16:15:34.335Z,100479.64
2022-12-31T16:18:10.705Z,100476.38
2022-12-31T16:20:48.457Z,100475.97
2022-12-31T16:23:27.537Z,100472.30
2022-12-31T16:26:02.113Z,100468.55
2022-12-31T16:28:34.286Z,100467.06
2022-12-31T16:31:14.900Z,100476.28
2022-12-31T16:33:46.598Z,100485.21
2022-12-31T16:36:23.903Z,100475.19
2022-12-31T16:38:59.385Z,100469.58
2022-12-31T16:41:43.478Z,100479.31
2022-12-31T16:44:28.859Z,100479.77
2022-12-31T16:47:04.205Z,100485.39
2022-12-31T16:49:39.052Z,100489.94
2022-12-31T16:52:27.757Z,100492.71
2022-12-31T16:54:58.973Z,100498.13
2022-12-31T16:57:32.370Z,100495.78
2022-12-31T17:00:07.002Z,100490.05
2022-12-31T17:02:45.375Z,100490.91
2022-12-31T17:05:27.950Z,100485.48
2022-12-31T17:07:57.988Z,100482.27
2022-12-31T17:10:36.410Z,100485.44
2022-12-31T17:13:28.104Z,100480.80
2022-12-31T17:16:00.770Z,100479.07
2022-12-31T17:18:38.628Z,100473.66
2022-12-31T17:21:10.853Z,100467.73
2022-12-31T17:23:41.442Z,100475.56
2022-12-31T17:26:23.822Z,100490.77
2022-12-31T17:28:56.538Z,100496.47
2022-12-31T17:31:36.753Z,100503.81
2022-12-31T17:34:12.476Z,100505.39
2022-12-31T17:36:58.268Z,100512.95
2022-12-31T17:39:44.590Z,100515.61
2022-12-31T17:42:32.117Z,100504.73
2022-12-31T17:45:09.311Z,100508.34
2022-12-31T17:47:45.462Z,100514.11
2022-12-31T17:50:15.309Z,100517.48
2022-12-31T17:52:45.919Z,100522.44
2022-12-31T17:55:16.403Z,100521.27
2022-12-31T17:57:58.138Z,100519.66
2022-12-31T18:00:28.195Z,100515.05
2022-12-31T18:02:58.168Z,100509.96
2022-12-31T18:05:28.068Z,100510.77
2022-12-31T18:07:57.831Z,100500.02
2022-12-31T18:10:32.209Z,100511.92
2022-12-31T18:13:05.766Z,100514.77
2022-12-31T18:15:35.537Z,100522.16
2022-12-31T18:18:25.262Z,100522.07
2022-12-31T18:21:22.204Z,100514.51
2022-12-31T18:26:24.713Z,100517.05
2022-12-31T18:28:52.991Z,100517.59
2022-12-31T18:31:24.779Z,100518.72
2022-12-31T18:33:58.761Z,100523.48
2022-12-31T18:36:29.155Z,100529.11
2022-12-31T18:38:58.908Z,100529.15
2022-12-31T18:41:38.086Z,100532.08
2022-12-31T18:44:14.996Z,100542.56
2022-12-31T18:46:44.867Z,100540.41
2022-12-31T18:49:14.670Z,100545.14
2022-12-31T18:51:44.507Z,100547.35
2022-12-31T18:54:14.473Z,100546.26
2022-12-31T18:56:47.662Z,100545.96
2022-12-31T18:59:19.219Z,100546.34
2022-12-31T19:01:49.329Z,100543.56
2022-12-31T19:04:27.138Z,100547.02
2022-12-31T19:06:58.025Z,100544.59
2022-12-31T19:12:19.196Z,100531.66
2022-12-31T19:14:48.931Z,100529.27
2022-12-31T19:17:18.733Z,100532.81
2022-12-31T19:19:48.695Z,100536.90
2022-12-31T19:22:18.459Z,100542.92
2022-12-31T19:24:48.295Z,100552.71
2022-12-31T19:27:18.121Z,100551.44
2022-12-31T19:29:47.942Z,100541.34
2022-12-31T19:32:17.733Z,100542.55
2022-12-31T19:34:47.532Z,100539.84
2022-12-31T19:37:17.231Z,100530.52
2022-12-31T19:39:47.009Z,100529.86
2022-12-31T19:42:17.109Z,100532.31
2022-12-31T19:44:46.835Z,100524.71
2022-12-31T19:47:16.630Z,100520.85
2022-12-31T19:49:46.616Z,100516.20
2022-12-31T19:52:16.394Z,100517.88
2022-12-31T19:54:46.364Z,100520.57
2022-12-31T19:57:16.240Z,100512.52
2022-12-31T19:59:44.585Z,100511.42
2022-12-31T20:02:13.164Z,100509.76
2022-12-31T20:04:42.406Z,100514.94
2022-12-31T20:07:09.884Z,100518.50
2022-12-31T20:09:38.329Z,100521.60
2022-12-31T20:12:11.364Z,100522.06
2022-12-31T20:14:41.510Z,100527.86
2022-12-31T20:17:11.900Z,100534.45
2022-12-31T20:19:41.574Z,100535.34
2022-12-31T20:22:11.545Z,100533.17
2022-12-31T20:24:41.419Z,100538.70
2022-12-31T20:27:18.096Z,100527.69
2022-12-31T20:29:48.242Z,100523.94
2022-12-31T20:32:18.047Z,100525.23
2022-12-31T20:34:48.085Z,100526.43
2022-12-31T20:37:18.024Z,100521.96
2022-12-31T20:39:47.808Z,100526.17
2022-12-31T20:42:17.841Z,100522.85
2022-12-31T20:44:47.695Z,100526.75
2022-12-31T20:47:16.088Z,100533.08
2022-12-31T20:50:10.191Z,100538.52
2022-12-31T20:52:34.370Z,100529.89
2022-12-31T20:55:05.060Z,100528.94
2022-12-31T20:57:35.276Z,100517.14
2022-12-31T21:00:06.581Z,100512.29
2022-12-31T21:02:42.044Z,100519.16
2022-12-31T21:05:12.304Z,100523.64
2022-12-31T21:07:42.269Z,100522.10
2022-12-31T21:10:12.008Z,100512.06
2022-12-31T21:12:43.494Z,100510.99
2022-12-31T21:15:13.941Z,100514.71
2022-12-31T21:17:43.803Z,100521.38
2022-12-31T21:20:13.701Z,100521.83
2022-12-31T21:22:43.491Z,100528.25
2022-12-31T21:25:13.257Z,100524.61
2022-12-31T21:27:43.145Z,100528.25
2022-12-31T21:30:18.959Z,100523.69
2022-12-31T21:32:49.452Z,100528.66
2022-12-31T21:38:09.252Z,100532.25
2022-12-31T21:40:37.732Z,100529.00
2022-12-31T21:43:07.727Z,100536.52
2022-12-31T21:45:38.321Z,100538.16
2022-12-31T21:48:21.703Z,100540.13
2022-12-31T21:50:55.605Z,100542.52
2022-12-31T21:53:30.516Z,100548.58
2022-12-31T21:56:08.620Z,100554.05
2022-12-31T21:59:15.847Z,100561.13
2022-12-31T22:02:04.364Z,100567.81
2022-12-31T22:07:23.941Z,100565.19
2022-12-31T22:09:53.699Z,100569.55
2022-12-31T22:12:23.746Z,100566.20
2022-12-31T22:15:14.789Z,100576.15
2022-12-31T22:17:43.330Z,100577.08
2022-12-31T22:20:28.807Z,100573.88
2022-12-31T22:22:58.994Z,100574.73
2022-12-31T22:25:27.447Z,100579.33
2022-12-31T22:28:36.236Z,100579.28
2022-12-31T22:30:48.555Z,100580.56
2022-12-31T22:33:18.766Z,100582.58
2022-12-31T22:36:07.479Z,100579.55
2022-12-31T22:38:36.972Z,100584.51
2022-12-31T22:41:15.061Z,100581.40
2022-12-31T22:43:49.136Z,100588.69
2022-12-31T22:46:25.878Z,100591.02
2022-12-31T22:48:59.442Z,100599.83
2022-12-31T22:51:56.390Z,100594.92
2022-12-31T22:54:21.560Z,100596.17
2022-12-31T22:56:51.543Z,100601.10
2022-12-31T22:59:21.764Z,100602.78
2022-12-31T23:01:51.530Z,100603.07
2022-12-31T23:04:21.457Z,100601.30
2022-12-31T23:06:51.261Z,100602.03
2022-12-31T23:09:40.224Z,100602.80
2022-12-31T23:12:13.498Z,100602.29
2022-12-31T23:15:02.081Z,100607.52
2022-12-31T23:17:50.832Z,100616.76
2022-12-31T23:20:42.877Z,100617.51
2022-12-31T23:23:16.410Z,100617.52
2022-12-31T23:25:51.898Z,100619.69
2022-12-31T23:28:25.532Z,100620.93
2022-12-31T23:30:55.248Z,100623.21
2022-12-31T23:33:26.416Z,100620.75
2022-12-31T23:36:07.782Z,100621.38
2022-12-31T23:38:37.609Z,100616.78
2022-12-31T23:41:20.612Z,100615.40
2022-12-31T23:43:50.705Z,100620.75
2022-12-31T23:46:20.552Z,100620.07
2022-12-31T23:48:50.321Z,100626.80
2022-12-31T23:51:21.671Z,100623.23
2022-12-31T23:53:51.677Z,100631.55
2022-12-31T23:56:23.917Z,100635.95
2022-12-31T23:58:59.157Z,100631.55
